To NAV CANADA Home Page Login to a new session Search on AWWS site Feedback and Comments Disclaimer Vers la page française équivalente Tips FAQ What's new on the site To the Forecasts and Observations / NOTAM section To "File a Flight Plan" website Publications and other links Update of the User's profile FIC Telephone Numbers My Weather Data Folder Route Weather Data Regional Weather Data Local Weather Data To the Forecasts and Observations / NOTAM section
Request Generated 06/26/2017 at 03:36:36 UTC . Weather information available at that time is displayed.

METAR/TAF

LONDON/ON    

METAR CYXU 260300Z 24006KT 15SM FEW060 BKN100 14/12 A3001 RMK SC2AC5
SLP165=
METAR CYXU 260200Z 25004KT 15SM SCT040TCU BKN100 14/12 A3001 RMK
TCU3AC4 SLP165=
METAR CYXU 260100Z 25006KT 15SM SCT040TCU BKN090 14/11 A3000 RMK
TCU3AC3 SHRA DIST NE AND S SLP161=

TAF CYXU 252338Z 2600/2624 24012G22KT P6SM BKN040 BKN080 TEMPO
2600/2601 P6SM -SHRA
FM260200 27005KT P6SM SCT050 BKN100
FM261300 25012G22KT P6SM BKN030
FM261500 25015G25KT P6SM BKN050 PROB30 2615/2621 VRB15G25KT
11/2SM +TSRA BKN040CB
RMK NXT FCST BY 260600Z=
Your time UTC time
Weather data provided by Environment Canada and NAV CANADA